Time,TemperatureF,DewpointF,PressureIn,WindDirection,WindDirectionDegrees,WindSpeedMPH,WindSpeedGustMPH,Humidity,HourlyPrecipIn,Conditions,Clouds,dailyrainin,SoftwareType,DateUTC
2013-05-03 00:23:00,43.0,41.0,-100.00,North,352,3.0,5.0,94,0.00,,,-99.99,,2013-05-03 04:23:00,
2013-05-03 00:32:00,43.0,41.0,-100.00,North,352,3.0,5.0,94,0.00,,,-99.99,,2013-05-03 04:32:00,
2013-05-03 00:43:00,43.0,41.0,-100.00,North,352,3.0,5.0,94,0.00,,,-99.99,,2013-05-03 04:43:00,
2013-05-03 01:22:00,44.0,41.0,-100.00,North,1,1.0,4.0,90,0.00,,,-99.99,,2013-05-03 05:22:00,
2013-05-03 01:32:00,44.0,41.0,-100.00,North,1,1.0,4.0,90,0.00,,,-99.99,,2013-05-03 05:32:00,
2013-05-03 01:42:00,44.0,41.0,-100.00,North,1,1.0,4.0,90,0.00,,,-99.99,,2013-05-03 05:42:00,
2013-05-03 02:12:00,44.0,41.0,-100.00,NNE,26,1.0,-999.0,88,0.00,,,-99.99,,2013-05-03 06:12:00,
2013-05-03 02:22:00,44.0,41.0,-100.00,NNE,26,1.0,3.0,88,0.00,,,-99.99,,2013-05-03 06:22:00,
2013-05-03 02:32:00,44.0,41.0,-100.00,NNE,26,1.0,3.0,88,0.00,,,-99.99,,2013-05-03 06:32:00,
2013-05-03 02:42:00,44.0,41.0,-100.00,NNE,26,1.0,3.0,88,0.00,,,-99.99,,2013-05-03 06:42:00,
2013-05-03 03:22:00,44.0,40.0,-100.00,NNE,21,1.0,2.0,87,0.00,,,-99.99,,2013-05-03 07:22:00,
2013-05-03 03:32:00,44.0,40.0,-100.00,NNE,21,1.0,2.0,87,0.00,,,-99.99,,2013-05-03 07:32:00,
2013-05-03 03:42:00,44.0,40.0,-100.00,NNE,21,1.0,2.0,87,0.00,,,-99.99,,2013-05-03 07:42:00,
2013-05-03 04:21:00,42.0,40.0,-100.00,NNE,27,1.0,5.0,90,0.00,,,-99.99,,2013-05-03 08:21:00,
2013-05-03 04:32:00,42.0,40.0,-100.00,NNE,27,1.0,5.0,90,0.00,,,-99.99,,2013-05-03 08:32:00,
2013-05-03 04:42:00,42.0,40.0,-100.00,NNE,27,1.0,5.0,90,0.00,,,-99.99,,2013-05-03 08:42:00,
2013-05-03 05:21:00,41.0,39.0,-100.00,East,80,1.0,3.0,91,0.00,,,-99.99,,2013-05-03 09:21:00,
2013-05-03 05:33:00,41.0,39.0,-100.00,East,80,1.0,3.0,91,0.00,,,-99.99,,2013-05-03 09:33:00,
2013-05-03 05:42:00,41.0,39.0,-100.00,East,80,1.0,3.0,91,0.00,,,-99.99,,2013-05-03 09:42:00,
2013-05-03 06:22:00,39.0,38.0,-100.00,North,353,3.0,4.0,95,0.00,,,-99.99,,2013-05-03 10:22:00,
2013-05-03 06:32:00,39.0,38.0,-100.00,North,353,3.0,4.0,95,0.00,,,-99.99,,2013-05-03 10:32:00,
2013-05-03 06:42:00,39.0,38.0,-100.00,North,353,3.0,4.0,95,0.00,,,-99.99,,2013-05-03 10:42:00,
2013-05-03 07:11:00,42.0,41.0,-100.00,NNW,347,2.0,-999.0,95,0.00,,,-99.99,,2013-05-03 11:11:00,
2013-05-03 07:22:00,42.0,41.0,-100.00,NNW,347,2.0,4.0,95,0.00,,,-99.99,,2013-05-03 11:22:00,
2013-05-03 07:32:00,42.0,41.0,-100.00,NNW,347,2.0,4.0,95,0.00,,,-99.99,,2013-05-03 11:32:00,
2013-05-03 07:42:00,42.0,41.0,-100.00,NNW,347,2.0,4.0,95,0.00,,,-99.99,,2013-05-03 11:42:00,
2013-05-03 08:22:00,49.0,41.0,-100.00,NE,45,5.0,15.0,73,0.00,,,-99.99,,2013-05-03 12:22:00,
2013-05-03 08:32:00,49.0,41.0,-100.00,NE,45,5.0,15.0,73,0.00,,,-99.99,,2013-05-03 12:32:00,
2013-05-03 08:42:00,49.0,41.0,-100.00,NE,45,5.0,15.0,73,0.00,,,-99.99,,2013-05-03 12:42:00,
2013-05-03 09:22:00,48.0,41.0,-100.00,NE,44,7.0,18.0,75,0.00,,,-99.99,,2013-05-03 13:22:00,
2013-05-03 09:32:00,48.0,41.0,-100.00,NE,44,7.0,18.0,75,0.00,,,-99.99,,2013-05-03 13:32:00,
2013-05-03 09:42:00,48.0,41.0,-100.00,NE,44,7.0,18.0,75,0.00,,,-99.99,,2013-05-03 13:42:00,
2013-05-03 10:22:00,50.0,41.0,-100.00,NE,52,7.0,16.0,71,0.00,,,-99.99,,2013-05-03 14:22:00,
2013-05-03 10:32:00,50.0,41.0,-100.00,NE,52,7.0,16.0,71,0.00,,,-99.99,,2013-05-03 14:32:00,
2013-05-03 10:42:00,50.0,41.0,-100.00,NE,52,7.0,16.0,71,0.00,,,-99.99,,2013-05-03 14:42:00,
2013-05-03 11:22:00,51.0,42.0,-100.00,ENE,65,6.0,19.0,70,0.00,,,-99.99,,2013-05-03 15:22:00,
2013-05-03 11:32:00,51.0,42.0,-100.00,ENE,65,6.0,19.0,70,0.00,,,-99.99,,2013-05-03 15:32:00,
2013-05-03 11:43:00,51.0,42.0,-100.00,ENE,65,6.0,19.0,70,0.00,,,-99.99,,2013-05-03 15:43:00,
2013-05-03 12:23:00,51.0,42.0,-100.00,ENE,59,5.0,15.0,71,0.00,,,-99.99,,2013-05-03 16:23:00,
2013-05-03 12:33:00,51.0,42.0,-100.00,ENE,59,5.0,15.0,71,0.00,,,-99.99,,2013-05-03 16:33:00,
2013-05-03 12:42:00,51.0,42.0,-100.00,ENE,59,5.0,15.0,71,0.00,,,-99.99,,2013-05-03 16:42:00,
2013-05-03 13:23:00,50.0,43.0,-100.00,NE,34,6.0,15.0,76,0.00,,,-99.99,,2013-05-03 17:23:00,
2013-05-03 13:32:00,50.0,43.0,-100.00,NE,34,6.0,15.0,76,0.00,,,-99.99,,2013-05-03 17:32:00,
2013-05-03 13:42:00,50.0,43.0,-100.00,NE,34,6.0,15.0,76,0.00,,,-99.99,,2013-05-03 17:42:00,
2013-05-03 14:22:00,51.0,43.0,-100.00,NE,55,5.0,15.0,74,0.00,,,-99.99,,2013-05-03 18:22:00,
2013-05-03 14:32:00,51.0,43.0,-100.00,NE,55,5.0,15.0,74,0.00,,,-99.99,,2013-05-03 18:32:00,
2013-05-03 14:42:00,51.0,43.0,-100.00,NE,55,5.0,15.0,74,0.00,,,-99.99,,2013-05-03 18:42:00,
2013-05-03 15:21:00,51.0,43.0,-100.00,NE,34,5.0,12.0,74,0.00,,,-99.99,,2013-05-03 19:21:00,
2013-05-03 15:32:00,51.0,43.0,-100.00,NE,34,5.0,12.0,74,0.00,,,-99.99,,2013-05-03 19:32:00,
2013-05-03 15:42:00,51.0,43.0,-100.00,NE,34,5.0,12.0,74,0.00,,,-99.99,,2013-05-03 19:42:00,
2013-05-03 16:22:00,51.0,43.0,-100.00,NE,35,6.0,15.0,73,0.00,,,-99.99,,2013-05-03 20:22:00,
2013-05-03 16:32:00,51.0,43.0,-100.00,NE,35,6.0,15.0,73,0.00,,,-99.99,,2013-05-03 20:32:00,
2013-05-03 16:42:00,51.0,43.0,-100.00,NE,35,6.0,15.0,73,0.00,,,-99.99,,2013-05-03 20:42:00,
2013-05-03 17:22:00,52.0,43.0,-100.00,NE,49,6.0,13.0,72,0.00,,,-99.99,,2013-05-03 21:22:00,
2013-05-03 17:33:00,52.0,43.0,-100.00,NE,49,6.0,13.0,72,0.00,,,-99.99,,2013-05-03 21:33:00,
2013-05-03 17:42:00,52.0,43.0,-100.00,NE,49,6.0,13.0,72,0.00,,,-99.99,,2013-05-03 21:42:00,
2013-05-03 18:22:00,52.0,43.0,-100.00,NNE,18,6.0,14.0,72,0.00,,,-99.99,,2013-05-03 22:22:00,
2013-05-03 18:32:00,52.0,43.0,-100.00,NNE,18,6.0,14.0,72,0.00,,,-99.99,,2013-05-03 22:32:00,
2013-05-03 18:42:00,52.0,43.0,-100.00,NNE,18,6.0,14.0,72,0.00,,,-99.99,,2013-05-03 22:42:00,
2013-05-03 19:22:00,49.0,42.0,-100.00,NNE,26,4.0,13.0,79,0.00,,,-99.99,,2013-05-03 23:22:00,
2013-05-03 19:32:00,49.0,42.0,-100.00,NNE,26,4.0,13.0,79,0.00,,,-99.99,,2013-05-03 23:32:00,
2013-05-03 19:41:00,49.0,42.0,-100.00,NNE,26,4.0,13.0,79,0.00,,,-99.99,,2013-05-03 23:41:00,
2013-05-03 20:23:00,46.0,42.0,-100.00,ENE,69,2.0,9.0,86,0.00,,,-99.99,,2013-05-04 00:23:00,
2013-05-03 20:32:00,46.0,42.0,-100.00,ENE,69,2.0,9.0,86,0.00,,,-99.99,,2013-05-04 00:32:00,
2013-05-03 20:42:00,46.0,42.0,-100.00,ENE,69,2.0,9.0,86,0.00,,,-99.99,,2013-05-04 00:42:00,
2013-05-03 21:21:00,46.0,42.0,-100.00,NNE,27,1.0,3.0,87,0.00,,,-99.99,,2013-05-04 01:21:00,
2013-05-03 21:32:00,46.0,42.0,-100.00,NNE,27,1.0,3.0,87,0.00,,,-99.99,,2013-05-04 01:32:00,
2013-05-03 21:42:00,46.0,42.0,-100.00,NNE,27,1.0,3.0,87,0.00,,,-99.99,,2013-05-04 01:42:00,
2013-05-03 22:21:00,43.0,41.0,-100.00,North,357,1.0,3.0,91,0.00,,,-99.99,,2013-05-04 02:21:00,
2013-05-03 22:32:00,43.0,41.0,-100.00,North,357,1.0,3.0,91,0.00,,,-99.99,,2013-05-04 02:32:00,
2013-05-03 22:42:00,43.0,41.0,-100.00,North,357,1.0,3.0,91,0.00,,,-99.99,,2013-05-04 02:42:00,
2013-05-03 23:22:00,42.0,40.0,-100.00,North,360,0.0,2.0,94,0.00,,,-99.99,,2013-05-04 03:22:00,
2013-05-03 23:33:00,42.0,40.0,-100.00,North,360,0.0,2.0,94,0.00,,,-99.99,,2013-05-04 03:33:00,
2013-05-03 23:43:00,42.0,40.0,-100.00,North,360,0.0,2.0,94,0.00,,,-99.99,,2013-05-04 03:43:00,